Danbury, Wisconsin
Current Conditions -  °F | °C
As of 1:55 PM on Saturday 20 Dec 2014 (Local Time) from KRZN Reporting Station
Overcast Overcast  
Wind Chill: 25°   Ceiling: 1300
Heat Index: 32°   Visibility: 7mi
Dew Point: 27°   Wind: 7mph
Humidity: 83%   Direction: 180°S
Pressure: 30.11"   Gusts: NA
Location:  46.01°N, 92.37°W
Report Text: KRZN 201955Z AUTO 18006KT 7SM OVC013 00/M03 A3011 RMK AO2 T10011026
Loading
Personal Weather Stations






























Interactive Weather Map New forecast layout! Learn more

10-Day Weather Forecast

Advertisements
Track Severe Weather on mobile